Time;durP1;ratioP1;P1;durP2;ratioP2;P2;SDS_P1;SDS_P2;PMS_P1;PMS_P2;Temp;Humidity;BMP_temperature;BMP_pressure;BME280_temperature;BME280_humidity;BME280_pressure;Samples;Min_cycle;Max_cycle;Signal;HPM_P1;HPM_P2
2022/04/25 00:01:18;;;;;;;19.88;11.90;;;;;;;;;;6256249;28;20041;-78
2022/04/25 00:04:20;;;;;;;20.42;11.70;;;;;;;;;;6258401;28;20041;-79
2022/04/25 00:07:22;;;;;;;22.25;12.95;;;;;;;;;;6254128;28;20907;-80
2022/04/25 00:10:23;;;;;;;22.20;12.52;;;;;;;;;;6254729;28;20191;-77
2022/04/25 00:13:25;;;;;;;21.13;12.38;;;;;;;;;;6253573;28;20197;-77
2022/04/25 00:16:27;;;;;;;20.90;11.88;;;;;;;;;;6268019;28;20083;-78
2022/04/25 00:19:29;;;;;;;19.00;11.93;;;;;;;;;;6255904;28;20053;-77
2022/04/25 00:22:30;;;;;;;21.17;13.18;;;;;;;;;;6272848;28;20572;-80
2022/04/25 00:25:35;;;;;;;22.35;12.35;;;;;;;;;;6269989;28;20130;-78
2022/04/25 00:28:37;;;;;;;27.13;15.10;;;;;;;;;;6261115;28;20538;-80
2022/04/25 00:31:40;;;;;;;31.35;16.67;;;;;;;;;;6259634;28;20094;-80
2022/04/25 00:34:41;;;;;;;24.08;13.63;;;;;;;;;;6277946;28;20663;-80
2022/04/25 00:37:43;;;;;;;21.52;12.73;;;;;;;;;;6263118;28;20045;-78
2022/04/25 00:40:46;;;;;;;21.05;11.88;;;;;;;;;;6271724;28;20515;-76
2022/04/25 00:43:47;;;;;;;17.90;11.27;;;;;;;;;;6285343;28;20074;-78
2022/04/25 00:46:52;;;;;;;20.17;12.23;;;;;;;;;;6315450;28;20588;-77
2022/04/25 00:49:54;;;;;;;25.65;13.52;;;;;;;;;;6282053;28;20453;-80
2022/04/25 00:52:56;;;;;;;21.45;12.77;;;;;;;;;;6285084;28;20097;-78
2022/04/25 00:55:59;;;;;;;23.38;12.52;;;;;;;;;;6274452;28;20525;-78
2022/04/25 00:59:03;;;;;;;23.48;12.73;;;;;;;;;;6258647;28;20418;-78
2022/04/25 01:02:05;;;;;;;23.38;13.23;;;;;;;;;;6256274;28;20152;-80
2022/04/25 01:05:08;;;;;;;19.13;12.20;;;;;;;;;;6261305;28;20382;-79
2022/04/25 01:08:10;;;;;;;21.67;12.55;;;;;;;;;;6260715;28;20052;-77
2022/04/25 01:11:12;;;;;;;16.58;10.55;;;;;;;;;;6285754;28;20438;-78
2022/04/25 01:14:16;;;;;;;17.90;11.37;;;;;;;;;;6285924;28;20108;-79
2022/04/25 01:17:18;;;;;;;22.15;13.10;;;;;;;;;;6270205;28;20068;-80
2022/04/25 01:20:20;;;;;;;18.83;12.63;;;;;;;;;;6260546;28;20045;-78
2022/04/25 01:30:04;;;;;;;19.55;12.70;;;;;;;;;;6292137;28;20136;-78
2022/04/25 01:33:06;;;;;;;21.10;13.30;;;;;;;;;;6283181;28;20044;-79
2022/04/25 01:36:08;;;;;;;23.13;13.65;;;;;;;;;;6286886;28;20155;-77
2022/04/25 01:39:09;;;;;;;23.85;13.50;;;;;;;;;;6281061;28;20174;-79
2022/04/25 01:42:12;;;;;;;20.83;13.38;;;;;;;;;;6274108;28;20628;-81
2022/04/25 01:45:13;;;;;;;24.92;14.15;;;;;;;;;;6259583;28;20588;-79
2022/04/25 01:48:15;;;;;;;21.92;13.52;;;;;;;;;;6296935;28;20520;-81
2022/04/25 01:51:16;;;;;;;22.35;13.88;;;;;;;;;;6283591;28;20048;-78
2022/04/25 01:54:24;;;;;;;23.67;13.80;;;;;;;;;;6284416;28;20090;-81
2022/04/25 01:57:26;;;;;;;23.13;14.10;;;;;;;;;;6283120;28;20429;-79
2022/04/25 02:00:28;;;;;;;23.95;14.07;;;;;;;;;;6281079;28;20137;-78
2022/04/25 02:03:31;;;;;;;24.20;14.00;;;;;;;;;;6261462;28;20119;-79
2022/04/25 02:06:33;;;;;;;22.48;13.65;;;;;;;;;;6275000;28;20068;-81
2022/04/25 02:09:36;;;;;;;28.25;15.23;;;;;;;;;;6286746;28;20132;-80
2022/04/25 02:12:38;;;;;;;25.95;14.70;;;;;;;;;;6284561;28;20036;-78
2022/04/25 02:15:40;;;;;;;21.65;13.45;;;;;;;;;;6282228;28;20182;-76
2022/04/25 02:18:42;;;;;;;21.73;13.60;;;;;;;;;;6262110;28;20437;-78
2022/04/25 02:21:44;;;;;;;23.90;14.73;;;;;;;;;;6266569;28;20705;-80
2022/04/25 02:24:46;;;;;;;28.83;16.30;;;;;;;;;;6276089;28;20128;-79
2022/04/25 02:27:48;;;;;;;25.27;14.10;;;;;;;;;;6261739;28;20092;-79
2022/04/25 02:30:52;;;;;;;24.65;14.90;;;;;;;;;;6264728;28;20048;-79
2022/04/25 02:33:53;;;;;;;23.50;13.75;;;;;;;;;;6291136;28;20094;-80
2022/04/25 02:36:55;;;;;;;23.00;13.70;;;;;;;;;;6291527;28;20525;-82
2022/04/25 02:39:57;;;;;;;21.77;13.68;;;;;;;;;;6289688;28;20040;-78
2022/04/25 02:42:59;;;;;;;25.98;15.27;;;;;;;;;;6304340;28;20125;-80
2022/04/25 02:46:02;;;;;;;25.65;14.52;;;;;;;;;;6288736;28;20421;-79
2022/04/25 02:49:04;;;;;;;23.20;14.02;;;;;;;;;;6272040;28;20044;-77
2022/04/25 02:52:06;;;;;;;21.67;12.25;;;;;;;;;;6289901;28;20641;-79
2022/04/25 02:55:08;;;;;;;18.20;11.38;;;;;;;;;;6274476;28;20045;-80
2022/04/25 02:58:09;;;;;;;19.10;10.25;;;;;;;;;;6280379;28;20076;-80
2022/04/25 03:01:11;;;;;;;15.68;10.10;;;;;;;;;;6263533;28;20190;-80
2022/04/25 03:04:13;;;;;;;18.75;11.35;;;;;;;;;;6264024;28;20095;-78
2022/04/25 03:07:14;;;;;;;17.63;10.10;;;;;;;;;;6265384;28;20041;-80
2022/04/25 03:10:16;;;;;;;15.65;10.27;;;;;;;;;;6262940;28;20128;-79
2022/04/25 03:13:19;;;;;;;17.52;9.77;;;;;;;;;;6270037;28;20117;-78
2022/04/25 03:16:21;;;;;;;14.63;8.45;;;;;;;;;;6292306;28;20090;-81
2022/04/25 03:19:23;;;;;;;15.45;8.52;;;;;;;;;;6263221;28;20086;-80
2022/04/25 03:22:25;;;;;;;14.73;8.73;;;;;;;;;;6297037;28;20054;-80
2022/04/25 03:25:28;;;;;;;16.58;9.48;;;;;;;;;;6317724;28;20404;-78
2022/04/25 03:28:30;;;;;;;18.00;11.27;;;;;;;;;;6266084;28;20122;-81
2022/04/25 03:31:32;;;;;;;21.85;12.43;;;;;;;;;;6266488;28;20049;-80
2022/04/25 03:34:37;;;;;;;21.00;12.63;;;;;;;;;;6282966;28;20057;-79
2022/04/25 03:37:39;;;;;;;17.95;11.05;;;;;;;;;;6299641;28;20061;-80
2022/04/25 03:40:41;;;;;;;17.92;10.95;;;;;;;;;;6275154;27;21392;-80
2022/04/25 03:43:43;;;;;;;21.38;11.13;;;;;;;;;;6289923;28;20127;-78
2022/04/25 03:46:45;;;;;;;17.95;10.93;;;;;;;;;;6280307;28;20047;-79
2022/04/25 03:49:47;;;;;;;20.90;11.77;;;;;;;;;;6265211;28;20490;-78
2022/04/25 03:52:48;;;;;;;17.25;10.85;;;;;;;;;;6267503;28;20072;-78
2022/04/25 03:59:10;;;;;;;14.93;8.48;;;;;;;;;;6264840;28;20391;-80
2022/04/25 04:02:12;;;;;;;12.75;8.50;;;;;;;;;;6281111;28;20048;-78
2022/04/25 04:05:14;;;;;;;12.65;8.13;;;;;;;;;;6290451;28;20131;-80
2022/04/25 04:08:16;;;;;;;14.18;9.32;;;;;;;;;;6291449;28;20127;-80
2022/04/25 04:11:17;;;;;;;15.75;9.27;;;;;;;;;;6287793;28;20597;-81
2022/04/25 04:14:19;;;;;;;19.60;9.75;;;;;;;;;;6289068;28;20049;-80
2022/04/25 04:17:21;;;;;;;17.52;10.02;;;;;;;;;;6277475;28;20139;-80
2022/04/25 04:20:22;;;;;;;16.45;10.82;;;;;;;;;;6262447;28;20060;-80
2022/04/25 04:23:25;;;;;;;18.80;10.27;;;;;;;;;;6261841;28;20143;-78
2022/04/25 04:26:28;;;;;;;19.83;9.67;;;;;;;;;;6263474;28;20109;-77
2022/04/25 04:29:33;;;;;;;;;;;;;;;;;;6264006;28;20041;-77
2022/04/25 04:32:35;;;;;;;19.15;10.00;;;;;;;;;;6264304;28;19924;-79
2022/04/25 04:38:57;;;;;;;17.00;8.90;;;;;;;;;;6265712;28;20041;-76
2022/04/25 04:41:59;;;;;;;18.23;8.90;;;;;;;;;;6297032;28;20047;-78
2022/04/25 04:45:02;;;;;;;15.30;9.00;;;;;;;;;;6290677;28;20097;-77
2022/04/25 04:48:04;;;;;;;23.07;10.53;;;;;;;;;;6271667;28;20131;-79
2022/04/25 04:51:06;;;;;;;18.10;10.68;;;;;;;;;;6285869;28;20454;-78
2022/04/25 04:54:08;;;;;;;17.73;10.43;;;;;;;;;;6280691;28;20069;-78
2022/04/25 04:57:10;;;;;;;19.02;9.93;;;;;;;;;;6272303;28;20103;-78
2022/04/25 05:00:16;;;;;;;18.08;10.27;;;;;;;;;;6288118;28;20045;-79
2022/04/25 05:03:17;;;;;;;17.80;9.80;;;;;;;;;;6264183;28;20049;-79
2022/04/25 05:06:19;;;;;;;16.13;9.38;;;;;;;;;;6280745;28;20065;-78
2022/04/25 05:09:21;;;;;;;15.95;9.88;;;;;;;;;;6262507;28;20044;-78
2022/04/25 05:12:23;;;;;;;14.23;9.18;;;;;;;;;;6275665;28;20592;-79
2022/04/25 05:15:25;;;;;;;16.35;9.07;;;;;;;;;;6280404;28;20121;-78
2022/04/25 05:18:27;;;;;;;16.55;9.45;;;;;;;;;;6260928;28;20045;-77
2022/04/25 05:21:28;;;;;;;18.15;9.10;;;;;;;;;;6261355;28;20182;-78
2022/04/25 05:24:30;;;;;;;20.45;10.00;;;;;;;;;;6258924;28;20045;-78
2022/04/25 05:27:33;;;;;;;18.95;11.05;;;;;;;;;;6261704;28;20131;-78
2022/04/25 05:30:35;;;;;;;17.80;10.73;;;;;;;;;;6262384;28;20784;-79
2022/04/25 05:33:37;;;;;;;18.83;10.10;;;;;;;;;;6261160;28;20056;-79
2022/04/25 05:36:39;;;;;;;20.70;11.23;;;;;;;;;;6263793;28;20068;-80
2022/04/25 05:39:40;;;;;;;19.27;10.82;;;;;;;;;;6280504;28;20124;-78
2022/04/25 05:42:44;;;;;;;20.98;11.80;;;;;;;;;;6261200;28;20817;-79
2022/04/25 05:45:47;;;;;;;18.75;11.00;;;;;;;;;;6263604;28;20056;-80
2022/04/25 05:52:10;;;;;;;18.92;10.73;;;;;;;;;;6260836;28;20052;-81
2022/04/25 05:55:19;;;;;;;16.55;10.13;;;;;;;;;;6263490;28;20049;-81
2022/04/25 05:58:20;;;;;;;18.20;9.93;;;;;;;;;;6263476;28;20133;-81
2022/04/25 06:01:22;;;;;;;18.55;10.13;;;;;;;;;;6261796;28;20120;-80
2022/04/25 06:04:24;;;;;;;16.25;9.40;;;;;;;;;;6263773;28;20037;-78
2022/04/25 06:07:31;;;;;;;14.13;8.57;;;;;;;;;;6268107;28;20055;-79
2022/04/25 06:10:33;;;;;;;15.60;8.82;;;;;;;;;;6266037;28;20136;-80
2022/04/25 06:13:35;;;;;;;14.30;8.65;;;;;;;;;;6266915;28;20049;-80
2022/04/25 06:16:37;;;;;;;15.30;8.60;;;;;;;;;;6253954;28;20045;-80
2022/04/25 06:19:39;;;;;;;14.10;8.23;;;;;;;;;;6240874;28;20037;-79
2022/04/25 06:22:56;;;;;;;19.40;8.88;;;;;;;;;;6262828;28;20124;-79
2022/04/25 06:25:58;;;;;;;17.25;9.93;;;;;;;;;;6265785;28;20202;-81
2022/04/25 06:29:01;;;;;;;14.50;8.82;;;;;;;;;;6268097;28;20041;-79
2022/04/25 06:32:05;;;;;;;;;;;;;;;;;;6265925;28;20048;-77
2022/04/25 06:35:08;;;;;;;15.05;8.68;;;;;;;;;;6266073;28;19927;-80
2022/04/25 06:38:10;;;;;;;17.33;9.93;;;;;;;;;;6281950;28;20140;-78
2022/04/25 06:41:12;;;;;;;15.98;9.10;;;;;;;;;;6265097;28;20180;-80
2022/04/25 06:44:14;;;;;;;13.90;8.73;;;;;;;;;;6265669;28;20203;-80
2022/04/25 06:47:15;;;;;;;15.52;9.48;;;;;;;;;;6264936;28;20048;-78
2022/04/25 06:50:17;;;;;;;20.67;9.73;;;;;;;;;;6263736;28;20126;-79
2022/04/25 06:53:18;;;;;;;17.85;9.20;;;;;;;;;;6263933;28;20131;-78
2022/04/25 06:56:20;;;;;;;12.35;8.30;;;;;;;;;;6264559;28;20205;-80
2022/04/25 06:59:23;;;;;;;13.93;8.85;;;;;;;;;;6266472;28;20120;-79
2022/04/25 07:02:24;;;;;;;14.75;8.77;;;;;;;;;;6272856;28;20108;-79
2022/04/25 07:05:26;;;;;;;14.00;8.50;;;;;;;;;;6269168;28;20041;-79
2022/04/25 07:08:28;;;;;;;13.02;8.70;;;;;;;;;;6266013;28;20142;-77
2022/04/25 07:11:30;;;;;;;13.93;8.00;;;;;;;;;;6273375;27;20152;-79
2022/04/25 07:14:33;;;;;;;18.85;9.23;;;;;;;;;;6279809;28;20056;-78
2022/04/25 07:17:34;;;;;;;10.52;7.15;;;;;;;;;;6277407;27;20052;-79
2022/04/25 07:20:36;;;;;;;11.48;7.03;;;;;;;;;;6286281;28;20055;-78
2022/04/25 07:30:18;;;;;;;9.38;6.85;;;;;;;;;;6287090;28;20143;-77
2022/04/25 07:33:20;;;;;;;10.38;7.22;;;;;;;;;;6290323;28;20153;-77
2022/04/25 07:36:21;;;;;;;9.80;7.40;;;;;;;;;;6290268;28;20067;-79
2022/04/25 07:39:23;;;;;;;9.25;7.03;;;;;;;;;;6289668;28;20048;-78
2022/04/25 07:42:25;;;;;;;11.35;7.72;;;;;;;;;;6287687;28;20064;-80
2022/04/25 07:45:27;;;;;;;10.40;6.68;;;;;;;;;;6290014;28;20037;-80
2022/04/25 07:48:28;;;;;;;10.45;7.28;;;;;;;;;;6266551;28;20087;-78
2022/04/25 07:51:30;;;;;;;7.90;6.00;;;;;;;;;;6264120;28;20490;-76
2022/04/25 07:54:32;;;;;;;9.38;6.78;;;;;;;;;;6266466;28;20156;-78
2022/04/25 07:57:35;;;;;;;9.70;6.95;;;;;;;;;;6264327;28;20079;-77
2022/04/25 08:00:41;;;;;;;8.75;6.07;;;;;;;;;;6264179;28;20056;-78
2022/04/25 08:03:43;;;;;;;7.80;6.30;;;;;;;;;;6264038;28;20162;-78
2022/04/25 08:06:45;;;;;;;7.97;5.97;;;;;;;;;;6265243;28;20594;-78
2022/04/25 08:09:46;;;;;;;8.75;6.70;;;;;;;;;;6265420;28;20118;-80
2022/04/25 08:19:31;;;;;;;7.15;5.43;;;;;;;;;;6264794;28;20040;-77
2022/04/25 08:22:34;;;;;;;7.25;5.15;;;;;;;;;;6270238;28;20060;-78
2022/04/25 08:25:36;;;;;;;5.78;4.47;;;;;;;;;;6267218;28;20057;-78
2022/04/25 08:28:40;;;;;;;5.68;4.40;;;;;;;;;;6273459;28;20099;-76
2022/04/25 08:32:01;;;;;;;6.72;4.53;;;;;;;;;;6266106;28;20516;-77
2022/04/25 08:35:03;;;;;;;6.22;4.72;;;;;;;;;;6274936;27;20123;-77
2022/04/25 08:38:06;;;;;;;6.28;4.88;;;;;;;;;;6269268;28;20132;-79
2022/04/25 08:41:08;;;;;;;7.68;5.13;;;;;;;;;;6279781;28;20068;-80
2022/04/25 08:44:10;;;;;;;7.03;4.80;;;;;;;;;;6291592;28;20058;-77
2022/04/25 08:47:14;;;;;;;6.03;4.70;;;;;;;;;;6293471;28;20047;-78
2022/04/25 08:50:17;;;;;;;37.35;21.52;;;;;;;;;;6291914;28;20102;-78
2022/04/25 08:53:20;;;;;;;77.38;27.38;;;;;;;;;;6288349;28;20040;-77
2022/04/25 08:56:25;;;;;;;7.13;5.03;;;;;;;;;;6289415;28;20638;-78
2022/04/25 08:59:27;;;;;;;23.50;14.38;;;;;;;;;;6264193;28;20056;-79
2022/04/25 09:02:29;;;;;;;6.63;5.25;;;;;;;;;;6241746;28;20085;-79
2022/04/25 09:05:31;;;;;;;7.22;5.10;;;;;;;;;;6257939;28;20049;-78
2022/04/25 09:08:33;;;;;;;7.72;5.32;;;;;;;;;;6263187;28;20087;-78
2022/04/25 09:14:56;;;;;;;11.02;9.93;;;;;;;;;;6279046;28;20055;-77
2022/04/25 09:18:18;;;;;;;9.55;7.28;;;;;;;;;;6263627;28;20055;-79
2022/04/25 09:21:19;;;;;;;9.60;7.80;;;;;;;;;;6263303;28;20041;-76
2022/04/25 09:24:32;;;;;;;7.88;7.07;;;;;;;;;;6264825;28;20091;-81
2022/04/25 09:27:41;;;;;;;6.63;5.38;;;;;;;;;;6263092;28;20053;-75
2022/04/25 09:31:00;;;;;;;7.95;6.78;;;;;;;;;;6261186;28;20554;-78
2022/04/25 09:34:15;;;;;;;10.38;6.63;;;;;;;;;;6264751;28;20055;-79
2022/04/25 09:37:18;;;;;;;8.45;6.05;;;;;;;;;;6263952;28;20065;-78
2022/04/25 09:40:22;;;;;;;6.88;5.75;;;;;;;;;;6260986;28;20040;-77
2022/04/25 09:43:31;;;;;;;8.40;6.00;;;;;;;;;;6262658;28;20521;-79
2022/04/25 09:46:46;;;;;;;9.93;7.65;;;;;;;;;;6263582;28;20494;-78
2022/04/25 09:50:06;;;;;;;11.73;8.00;;;;;;;;;;6263766;28;20045;-81
2022/04/25 09:53:10;;;;;;;8.25;5.80;;;;;;;;;;6262995;28;20128;-79
2022/04/25 09:56:17;;;;;;;7.72;6.10;;;;;;;;;;6264323;28;20195;-80
2022/04/25 09:59:21;;;;;;;7.90;6.13;;;;;;;;;;6263366;28;20047;-79
2022/04/25 10:02:23;;;;;;;8.18;5.47;;;;;;;;;;6260799;28;20131;-76
2022/04/25 10:06:01;;;;;;;7.50;5.38;;;;;;;;;;6264252;28;20052;-77
2022/04/25 10:09:08;;;;;;;7.25;5.65;;;;;;;;;;6258960;28;20080;-77
2022/04/25 10:12:10;;;;;;;8.82;5.50;;;;;;;;;;6262070;28;20571;-78
2022/04/25 10:15:11;;;;;;;8.50;5.45;;;;;;;;;;6286916;28;20129;-78
2022/04/25 10:18:14;;;;;;;8.60;5.90;;;;;;;;;;6264612;28;20064;-80
2022/04/25 10:21:16;;;;;;;10.10;6.72;;;;;;;;;;6276297;28;20049;-78
2022/04/25 10:24:18;;;;;;;8.48;6.18;;;;;;;;;;6278212;28;20153;-77
2022/04/25 10:27:27;;;;;;;10.07;6.00;;;;;;;;;;6261804;28;20067;-80
2022/04/25 10:30:33;;;;;;;10.50;6.70;;;;;;;;;;6260873;28;20056;-78
2022/04/25 10:33:52;;;;;;;9.23;5.97;;;;;;;;;;6262812;28;20608;-76
2022/04/25 10:36:54;;;;;;;9.50;5.72;;;;;;;;;;6262760;28;20041;-80
2022/04/25 10:39:57;;;;;;;7.95;5.57;;;;;;;;;;6262497;28;20100;-78
2022/04/25 10:47:05;;;;;;;8.95;5.95;;;;;;;;;;6263860;28;20056;-76
2022/04/25 10:50:08;;;;;;;9.82;6.50;;;;;;;;;;6260396;28;20056;-78
2022/04/25 10:53:10;;;;;;;;;;;;;;;;;;6265824;28;20056;-79
2022/04/25 10:56:11;;;;;;;10.90;6.68;;;;;;;;;;6264544;28;20432;-80
2022/04/25 10:59:24;;;;;;;9.73;6.82;;;;;;;;;;6263007;28;20083;-79
2022/04/25 11:02:27;;;;;;;10.83;7.47;;;;;;;;;;6263336;28;20065;-77
2022/04/25 11:05:29;;;;;;;11.30;6.57;;;;;;;;;;6264952;28;20053;-76
2022/04/25 11:08:32;;;;;;;10.43;6.50;;;;;;;;;;6280266;28;20132;-79
2022/04/25 11:11:51;;;;;;;9.73;6.43;;;;;;;;;;6265925;28;20126;-78
2022/04/25 11:14:57;;;;;;;8.27;6.53;;;;;;;;;;6284177;28;20045;-78
2022/04/25 11:18:37;;;;;;;9.45;6.40;;;;;;;;;;6271420;28;20043;-78
2022/04/25 11:21:46;;;;;;;8.18;5.95;;;;;;;;;;6282615;28;20045;-80
2022/04/25 11:24:48;;;;;;;9.35;6.15;;;;;;;;;;6267066;28;20056;-78
2022/04/25 11:28:04;;;;;;;9.02;6.32;;;;;;;;;;6266229;28;20132;-78
2022/04/25 11:31:15;;;;;;;11.35;6.75;;;;;;;;;;6265949;28;20067;-79
2022/04/25 11:34:21;;;;;;;10.43;6.70;;;;;;;;;;6266633;28;20037;-78
2022/04/25 11:37:23;;;;;;;7.47;5.85;;;;;;;;;;6281986;28;20041;-80
2022/04/25 11:40:26;;;;;;;11.88;6.43;;;;;;;;;;6262232;28;20167;-77
2022/04/25 11:43:28;;;;;;;15.35;6.78;;;;;;;;;;6297962;28;20422;-78
2022/04/25 11:46:33;;;;;;;12.85;6.80;;;;;;;;;;6265637;28;20153;-78
2022/04/25 11:49:37;;;;;;;11.73;6.82;;;;;;;;;;6265495;28;20098;-80
2022/04/25 11:52:54;;;;;;;12.32;6.32;;;;;;;;;;6265269;28;20095;-80
2022/04/25 11:55:55;;;;;;;9.35;6.25;;;;;;;;;;6265614;28;20048;-79
2022/04/25 11:58:58;;;;;;;12.35;7.03;;;;;;;;;;6269243;28;20076;-80
2022/04/25 12:01:59;;;;;;;11.27;7.07;;;;;;;;;;6282924;28;20122;-78
2022/04/25 12:05:02;;;;;;;13.50;6.80;;;;;;;;;;6240373;28;20046;-77
2022/04/25 12:18:22;;;;;;;9.75;7.47;;;;;;;;;;6267123;28;20037;-78
2022/04/25 12:21:25;;;;;;;11.50;7.28;;;;;;;;;;6263811;28;20162;-78
2022/04/25 12:24:27;;;;;;;12.50;7.47;;;;;;;;;;6263433;28;20041;-77
2022/04/25 12:27:35;;;;;;;8.95;6.97;;;;;;;;;;6264448;28;20134;-77
2022/04/25 12:31:03;;;;;;;9.65;7.03;;;;;;;;;;6263196;28;20059;-78
2022/04/25 12:34:07;;;;;;;9.30;7.03;;;;;;;;;;6261939;28;20505;-76
2022/04/25 12:37:11;;;;;;;11.00;7.45;;;;;;;;;;6263453;28;20052;-79
2022/04/25 12:40:13;;;;;;;12.45;8.55;;;;;;;;;;6262200;28;20044;-80
2022/04/25 12:43:38;;;;;;;11.55;7.22;;;;;;;;;;6263690;28;20044;-78
2022/04/25 12:46:41;;;;;;;;;;;;;;;;;;6264483;28;20041;-78
2022/04/25 12:49:47;;;;;;;9.98;7.28;;;;;;;;;;6262755;28;19986;-79
2022/04/25 12:52:49;;;;;;;11.00;7.22;;;;;;;;;;6263756;28;20049;-78
2022/04/25 12:55:51;;;;;;;11.95;7.93;;;;;;;;;;6270612;28;20252;-80
2022/04/25 12:58:54;;;;;;;11.30;7.50;;;;;;;;;;6274381;28;20079;-79
2022/04/25 13:02:01;;;;;;;12.23;7.88;;;;;;;;;;6273947;28;20131;-78
2022/04/25 13:05:05;;;;;;;11.65;8.23;;;;;;;;;;6262505;28;20041;-78
2022/04/25 13:08:07;;;;;;;12.30;7.82;;;;;;;;;;6265420;28;20490;-79
2022/04/25 13:11:09;;;;;;;10.68;7.32;;;;;;;;;;6273625;28;20128;-76
2022/04/25 13:14:11;;;;;;;14.73;8.35;;;;;;;;;;6274017;28;20044;-78
2022/04/25 13:17:12;;;;;;;12.40;8.45;;;;;;;;;;6286289;28;20194;-79
2022/04/25 13:20:17;;;;;;;12.50;8.13;;;;;;;;;;6287630;28;20044;-79
2022/04/25 13:23:19;;;;;;;13.52;8.57;;;;;;;;;;6276086;28;20112;-78
2022/04/25 13:26:21;;;;;;;13.20;8.32;;;;;;;;;;6264719;28;20106;-79
2022/04/25 13:29:23;;;;;;;12.80;7.78;;;;;;;;;;6264710;28;20069;-80
2022/04/25 13:32:26;;;;;;;10.90;7.80;;;;;;;;;;6278210;28;20099;-79
2022/04/25 13:35:29;;;;;;;14.70;8.10;;;;;;;;;;6287849;28;20037;-79
2022/04/25 13:38:32;;;;;;;12.57;7.53;;;;;;;;;;6288959;28;20128;-79
2022/04/25 13:41:34;;;;;;;;;;;;;;;;;;6269571;28;20076;-78
2022/04/25 13:44:36;;;;;;;9.95;7.50;;;;;;;;;;6261874;28;19943;-78
2022/04/25 13:47:39;;;;;;;11.77;7.85;;;;;;;;;;6236728;28;20220;-76
2022/04/25 13:50:41;;;;;;;14.05;8.43;;;;;;;;;;6255367;28;20125;-79
2022/04/25 13:53:43;;;;;;;11.73;7.68;;;;;;;;;;6259100;28;20057;-77
2022/04/25 13:56:45;;;;;;;12.63;7.85;;;;;;;;;;6275126;28;20497;-77
2022/04/25 13:59:47;;;;;;;11.30;8.20;;;;;;;;;;6260093;28;20076;-77
2022/04/25 14:03:07;;;;;;;10.77;6.95;;;;;;;;;;6261662;28;20134;-78
2022/04/25 14:06:09;;;;;;;10.50;7.80;;;;;;;;;;6262670;28;20072;-78
2022/04/25 14:09:11;;;;;;;10.50;7.50;;;;;;;;;;6262782;28;20191;-77
2022/04/25 14:12:13;;;;;;;10.85;5.90;;;;;;;;;;6287148;28;20369;-80
2022/04/25 14:15:15;;;;;;;3.80;3.13;;;;;;;;;;6286815;28;20124;-79
2022/04/25 14:18:17;;;;;;;4.22;3.17;;;;;;;;;;6268082;28;20439;-79
2022/04/25 14:21:18;;;;;;;4.50;3.58;;;;;;;;;;6271517;28;20044;-79
2022/04/25 14:24:21;;;;;;;5.20;3.03;;;;;;;;;;6268913;28;20406;-78
2022/04/25 14:27:22;;;;;;;3.42;2.95;;;;;;;;;;6275580;28;20135;-80
2022/04/25 14:30:25;;;;;;;4.63;3.58;;;;;;;;;;6274392;28;20045;-78
2022/04/25 14:33:26;;;;;;;3.78;3.15;;;;;;;;;;6277274;28;20481;-78
2022/04/25 14:36:29;;;;;;;6.15;3.85;;;;;;;;;;6267678;28;20040;-79
2022/04/25 14:39:33;;;;;;;7.82;4.03;;;;;;;;;;6278137;28;20191;-80
2022/04/25 14:42:34;;;;;;;6.13;4.50;;;;;;;;;;6269578;28;20545;-76
2022/04/25 14:45:36;;;;;;;4.47;3.80;;;;;;;;;;6269123;28;20073;-78
2022/04/25 14:48:39;;;;;;;4.22;3.10;;;;;;;;;;6270658;28;20064;-79
2022/04/25 14:55:01;;;;;;;3.70;2.80;;;;;;;;;;6243907;28;20065;-78
2022/04/25 14:58:03;;;;;;;2.97;2.67;;;;;;;;;;6277059;28;20586;-79
2022/04/25 15:01:04;;;;;;;3.22;2.55;;;;;;;;;;6269497;28;20536;-80
2022/04/25 15:04:06;;;;;;;3.80;3.08;;;;;;;;;;6290326;28;20036;-80
2022/04/25 15:07:08;;;;;;;3.60;2.88;;;;;;;;;;6265776;28;20052;-80
2022/04/25 15:10:11;;;;;;;3.25;2.63;;;;;;;;;;6255224;28;20049;-78
2022/04/25 15:13:12;;;;;;;4.78;3.30;;;;;;;;;;6272529;28;20064;-78
2022/04/25 15:16:15;;;;;;;4.20;3.30;;;;;;;;;;6287016;28;20051;-81
2022/04/25 15:19:16;;;;;;;4.80;3.47;;;;;;;;;;6275043;28;20045;-77
2022/04/25 15:22:18;;;;;;;5.28;3.67;;;;;;;;;;6273415;28;20114;-78
2022/04/25 15:25:20;;;;;;;6.65;4.57;;;;;;;;;;6283340;28;20174;-79
2022/04/25 15:28:22;;;;;;;7.82;4.85;;;;;;;;;;6290982;28;20056;-78
2022/04/25 15:31:23;;;;;;;4.72;3.72;;;;;;;;;;6281454;28;20053;-77
2022/04/25 15:34:25;;;;;;;4.05;3.55;;;;;;;;;;6274206;28;20413;-80
2022/04/25 15:37:30;;;;;;;4.25;3.72;;;;;;;;;;6283824;28;20064;-81
2022/04/25 15:40:35;;;;;;;4.95;3.75;;;;;;;;;;6277464;28;20060;-77
2022/04/25 15:43:37;;;;;;;6.10;4.00;;;;;;;;;;6266631;28;20140;-77
2022/04/25 15:46:40;;;;;;;6.53;3.80;;;;;;;;;;6277755;28;20124;-78
2022/04/25 15:49:41;;;;;;;3.83;3.40;;;;;;;;;;6267041;28;20044;-77
2022/04/25 15:52:43;;;;;;;5.78;4.60;;;;;;;;;;6287692;28;20036;-78
2022/04/25 15:59:05;;;;;;;5.22;3.80;;;;;;;;;;6277932;28;20048;-78
2022/04/25 16:02:07;;;;;;;4.07;3.30;;;;;;;;;;6272118;28;20434;-78
2022/04/25 16:05:09;;;;;;;4.30;3.42;;;;;;;;;;6276811;28;20041;-78
2022/04/25 16:08:16;;;;;;;3.35;2.90;;;;;;;;;;6288848;28;20547;-79
2022/04/25 16:11:18;;;;;;;3.80;2.70;;;;;;;;;;6264717;28;20715;-77
2022/04/25 16:14:19;;;;;;;3.53;2.60;;;;;;;;;;6271355;28;20517;-76
2022/04/25 16:17:21;;;;;;;3.55;3.08;;;;;;;;;;6272036;28;20041;-79
2022/04/25 16:20:27;;;;;;;3.90;2.65;;;;;;;;;;6261839;28;20053;-77
2022/04/25 16:23:29;;;;;;;4.68;3.10;;;;;;;;;;6278122;28;20133;-77
2022/04/25 16:26:31;;;;;;;3.97;2.97;;;;;;;;;;6285455;28;20195;-77
2022/04/25 16:29:33;;;;;;;5.03;3.70;;;;;;;;;;6287406;28;20765;-77
2022/04/25 16:32:34;;;;;;;3.57;3.27;;;;;;;;;;6244370;28;20152;-79
2022/04/25 16:35:37;;;;;;;3.35;2.80;;;;;;;;;;6275220;28;20071;-79
2022/04/25 16:38:39;;;;;;;3.50;2.65;;;;;;;;;;6288253;28;20866;-76
2022/04/25 16:41:44;;;;;;;2.92;2.63;;;;;;;;;;6274273;28;20045;-78
2022/04/25 16:44:46;;;;;;;3.50;3.00;;;;;;;;;;6273969;28;20127;-78
2022/04/25 16:47:48;;;;;;;9.45;5.78;;;;;;;;;;6279147;28;20068;-77
2022/04/25 16:50:49;;;;;;;4.50;3.25;;;;;;;;;;6285807;28;20060;-80
2022/04/25 16:53:51;;;;;;;4.63;3.08;;;;;;;;;;6286117;28;20048;-79
2022/04/25 16:56:52;;;;;;;4.25;3.25;;;;;;;;;;6281920;28;20131;-78
2022/04/25 16:59:54;;;;;;;4.13;3.30;;;;;;;;;;6285809;28;20063;-77
2022/04/25 17:02:56;;;;;;;7.47;3.65;;;;;;;;;;6265011;28;20063;-77
2022/04/25 17:05:59;;;;;;;8.95;4.32;;;;;;;;;;6267836;28;20047;-76
2022/04/25 17:09:01;;;;;;;21.33;7.57;;;;;;;;;;6282364;28;20055;-80
2022/04/25 17:12:03;;;;;;;13.43;5.50;;;;;;;;;;6262077;28;20056;-77
2022/04/25 17:15:06;;;;;;;14.75;6.40;;;;;;;;;;6274095;28;20045;-78
2022/04/25 17:18:08;;;;;;;28.10;14.70;;;;;;;;;;6284275;28;20070;-78
2022/04/25 17:21:09;;;;;;;5.95;4.05;;;;;;;;;;6285478;28;20087;-78
2022/04/25 17:24:11;;;;;;;6.63;4.00;;;;;;;;;;6281868;28;20120;-79
2022/04/25 17:27:13;;;;;;;4.22;3.38;;;;;;;;;;6285225;28;20178;-79
2022/04/25 17:30:14;;;;;;;4.45;3.50;;;;;;;;;;6285109;28;20201;-78
2022/04/25 17:36:45;;;;;;;7.15;5.30;;;;;;;;;;6285692;28;20202;-77
